sensor_id;sensor_type;location;lat;lon;timestamp;temperature;humidity
39095;DHT22;24840;47.508;19.376;2023-02-07T00:01:32;-6.70;99.90
39095;DHT22;24840;47.508;19.376;2023-02-07T00:03:58;-6.80;99.90
39095;DHT22;24840;47.508;19.376;2023-02-07T00:06:27;-7.00;99.90
39095;DHT22;24840;47.508;19.376;2023-02-07T00:08:54;-7.10;99.90
39095;DHT22;24840;47.508;19.376;2023-02-07T00:11:22;-7.10;99.90
39095;DHT22;24840;47.508;19.376;2023-02-07T00:13:50;-7.10;99.90
39095;DHT22;24840;47.508;19.376;2023-02-07T00:16:16;-7.00;99.90
39095;DHT22;24840;47.508;19.376;2023-02-07T00:18:42;-7.10;99.90
39095;DHT22;24840;47.508;19.376;2023-02-07T00:21:16;-7.10;99.90
39095;DHT22;24840;47.508;19.376;2023-02-07T00:23:42;-7.20;99.90
39095;DHT22;24840;47.508;19.376;2023-02-07T00:26:09;-7.10;99.90
39095;DHT22;24840;47.508;19.376;2023-02-07T00:28:35;-7.10;99.90
39095;DHT22;24840;47.508;19.376;2023-02-07T00:31:09;-7.20;99.90
39095;DHT22;24840;47.508;19.376;2023-02-07T00:33:37;-7.30;99.90
39095;DHT22;24840;47.508;19.376;2023-02-07T00:36:06;-7.20;99.90
39095;DHT22;24840;47.508;19.376;2023-02-07T00:38:32;-7.20;99.90
39095;DHT22;24840;47.508;19.376;2023-02-07T00:40:58;-7.30;99.90
39095;DHT22;24840;47.508;19.376;2023-02-07T00:43:28;-7.30;99.90
39095;DHT22;24840;47.508;19.376;2023-02-07T00:45:55;-7.30;99.90
39095;DHT22;24840;47.508;19.376;2023-02-07T00:48:21;-7.30;99.90
39095;DHT22;24840;47.508;19.376;2023-02-07T00:50:47;-7.30;99.90
39095;DHT22;24840;47.508;19.376;2023-02-07T00:53:13;-7.40;99.90
39095;DHT22;24840;47.508;19.376;2023-02-07T00:55:39;-7.60;99.90
39095;DHT22;24840;47.508;19.376;2023-02-07T00:58:04;-7.50;99.90
39095;DHT22;24840;47.508;19.376;2023-02-07T01:00:30;-7.40;99.90
39095;DHT22;24840;47.508;19.376;2023-02-07T01:02:56;-7.60;99.90
39095;DHT22;24840;47.508;19.376;2023-02-07T01:05:22;-7.60;99.90
39095;DHT22;24840;47.508;19.376;2023-02-07T01:07:48;-7.50;99.90
39095;DHT22;24840;47.508;19.376;2023-02-07T01:10:14;-7.40;99.90
39095;DHT22;24840;47.508;19.376;2023-02-07T01:12:40;-7.50;99.90
39095;DHT22;24840;47.508;19.376;2023-02-07T01:15:06;-7.50;99.90
39095;DHT22;24840;47.508;19.376;2023-02-07T01:17:32;-7.50;99.90
39095;DHT22;24840;47.508;19.376;2023-02-07T01:19:58;-7.70;99.90
39095;DHT22;24840;47.508;19.376;2023-02-07T01:22:25;-7.70;99.90
39095;DHT22;24840;47.508;19.376;2023-02-07T01:24:52;-7.70;99.90
39095;DHT22;24840;47.508;19.376;2023-02-07T01:27:20;-7.70;99.90
39095;DHT22;24840;47.508;19.376;2023-02-07T01:29:46;-7.60;99.90
39095;DHT22;24840;47.508;19.376;2023-02-07T01:32:12;-7.60;99.90
39095;DHT22;24840;47.508;19.376;2023-02-07T01:34:38;-7.70;99.90
39095;DHT22;24840;47.508;19.376;2023-02-07T01:37:03;-7.60;99.90
39095;DHT22;24840;47.508;19.376;2023-02-07T01:39:29;-7.60;99.90
39095;DHT22;24840;47.508;19.376;2023-02-07T01:41:55;-7.70;99.90
39095;DHT22;24840;47.508;19.376;2023-02-07T01:46:47;-7.70;99.90
39095;DHT22;24840;47.508;19.376;2023-02-07T01:49:14;-7.70;99.90
39095;DHT22;24840;47.508;19.376;2023-02-07T01:51:48;-7.70;99.90
39095;DHT22;24840;47.508;19.376;2023-02-07T01:54:16;-7.70;99.90
39095;DHT22;24840;47.508;19.376;2023-02-07T01:56:46;-7.70;99.90
39095;DHT22;24840;47.508;19.376;2023-02-07T01:59:14;-7.90;99.90
39095;DHT22;24840;47.508;19.376;2023-02-07T02:01:41;-7.80;99.90
39095;DHT22;24840;47.508;19.376;2023-02-07T02:04:07;-7.90;99.90
39095;DHT22;24840;47.508;19.376;2023-02-07T02:06:33;-8.10;99.90
39095;DHT22;24840;47.508;19.376;2023-02-07T02:09:01;-8.10;99.90
39095;DHT22;24840;47.508;19.376;2023-02-07T02:14:12;-7.90;99.90
39095;DHT22;24840;47.508;19.376;2023-02-07T02:20:09;-8.00;99.90
39095;DHT22;24840;47.508;19.376;2023-02-07T02:36:31;-8.20;99.90
39095;DHT22;24840;47.508;19.376;2023-02-07T02:42:00;-8.20;99.90
39095;DHT22;24840;47.508;19.376;2023-02-07T02:44:42;-8.10;99.90
39095;DHT22;24840;47.508;19.376;2023-02-07T02:47:10;-8.20;99.90
39095;DHT22;24840;47.508;19.376;2023-02-07T02:49:36;-8.20;99.90
39095;DHT22;24840;47.508;19.376;2023-02-07T02:52:04;-8.40;99.90
39095;DHT22;24840;47.508;19.376;2023-02-07T02:54:35;-8.50;99.90
39095;DHT22;24840;47.508;19.376;2023-02-07T03:11:13;-8.10;99.90
39095;DHT22;24840;47.508;19.376;2023-02-07T03:14:07;-8.10;99.90
39095;DHT22;24840;47.508;19.376;2023-02-07T03:16:58;-8.30;99.90
39095;DHT22;24840;47.508;19.376;2023-02-07T03:19:39;-8.50;99.90
39095;DHT22;24840;47.508;19.376;2023-02-07T03:22:13;-8.40;99.90
39095;DHT22;24840;47.508;19.376;2023-02-07T03:24:46;-8.30;99.90
39095;DHT22;24840;47.508;19.376;2023-02-07T03:27:14;-8.40;99.90
39095;DHT22;24840;47.508;19.376;2023-02-07T03:29:44;-8.40;99.90
39095;DHT22;24840;47.508;19.376;2023-02-07T03:32:12;-8.40;99.90
39095;DHT22;24840;47.508;19.376;2023-02-07T03:37:17;-8.60;99.90
39095;DHT22;24840;47.508;19.376;2023-02-07T03:39:44;-8.50;99.90
39095;DHT22;24840;47.508;19.376;2023-02-07T03:42:36;-8.50;99.90
39095;DHT22;24840;47.508;19.376;2023-02-07T03:45:05;-8.50;99.90
39095;DHT22;24840;47.508;19.376;2023-02-07T03:47:33;-8.30;99.90
39095;DHT22;24840;47.508;19.376;2023-02-07T03:49:59;-8.50;99.90
39095;DHT22;24840;47.508;19.376;2023-02-07T03:52:24;-8.60;99.90
39095;DHT22;24840;47.508;19.376;2023-02-07T03:54:50;-8.50;99.90
39095;DHT22;24840;47.508;19.376;2023-02-07T03:57:16;-8.60;99.90
39095;DHT22;24840;47.508;19.376;2023-02-07T03:59:42;-8.50;99.90
39095;DHT22;24840;47.508;19.376;2023-02-07T04:02:07;-8.50;99.90
39095;DHT22;24840;47.508;19.376;2023-02-07T04:04:33;-8.60;99.90
39095;DHT22;24840;47.508;19.376;2023-02-07T04:06:59;-8.60;99.90
39095;DHT22;24840;47.508;19.376;2023-02-07T04:09:25;-8.70;99.90
39095;DHT22;24840;47.508;19.376;2023-02-07T04:11:51;-8.70;99.90
39095;DHT22;24840;47.508;19.376;2023-02-07T04:14:17;-8.70;99.90
39095;DHT22;24840;47.508;19.376;2023-02-07T04:16:45;-8.60;99.90
39095;DHT22;24840;47.508;19.376;2023-02-07T04:19:11;-8.80;99.90
39095;DHT22;24840;47.508;19.376;2023-02-07T04:21:37;-8.90;99.90
39095;DHT22;24840;47.508;19.376;2023-02-07T04:24:03;-8.70;99.90
39095;DHT22;24840;47.508;19.376;2023-02-07T04:26:29;-8.50;99.90
39095;DHT22;24840;47.508;19.376;2023-02-07T04:28:54;-8.60;99.90
39095;DHT22;24840;47.508;19.376;2023-02-07T04:31:20;-8.50;99.90
39095;DHT22;24840;47.508;19.376;2023-02-07T04:33:47;-8.50;99.90
39095;DHT22;24840;47.508;19.376;2023-02-07T04:36:13;-8.50;99.90
39095;DHT22;24840;47.508;19.376;2023-02-07T04:38:39;-8.50;99.90
39095;DHT22;24840;47.508;19.376;2023-02-07T04:41:06;-8.60;99.90
39095;DHT22;24840;47.508;19.376;2023-02-07T04:43:33;-8.50;99.90
39095;DHT22;24840;47.508;19.376;2023-02-07T04:46:00;-8.40;99.90
39095;DHT22;24840;47.508;19.376;2023-02-07T04:48:26;-8.70;99.90
39095;DHT22;24840;47.508;19.376;2023-02-07T04:50:52;-8.70;99.90
39095;DHT22;24840;47.508;19.376;2023-02-07T04:53:18;-8.70;99.90
39095;DHT22;24840;47.508;19.376;2023-02-07T04:55:52;-8.80;99.90
39095;DHT22;24840;47.508;19.376;2023-02-07T04:58:19;-8.60;99.90
39095;DHT22;24840;47.508;19.376;2023-02-07T05:00:45;-8.70;99.90
39095;DHT22;24840;47.508;19.376;2023-02-07T05:03:11;-8.70;99.90
39095;DHT22;24840;47.508;19.376;2023-02-07T05:05:41;-8.60;99.90
39095;DHT22;24840;47.508;19.376;2023-02-07T05:08:07;-8.40;99.90
39095;DHT22;24840;47.508;19.376;2023-02-07T05:10:34;-8.50;99.90
39095;DHT22;24840;47.508;19.376;2023-02-07T05:13:00;-8.60;99.90
39095;DHT22;24840;47.508;19.376;2023-02-07T05:15:29;-8.60;99.90
39095;DHT22;24840;47.508;19.376;2023-02-07T05:17:54;-8.80;99.90
39095;DHT22;24840;47.508;19.376;2023-02-07T05:20:22;-8.70;99.90
39095;DHT22;24840;47.508;19.376;2023-02-07T05:22:48;-8.50;99.90
39095;DHT22;24840;47.508;19.376;2023-02-07T05:25:13;-8.40;99.90
39095;DHT22;24840;47.508;19.376;2023-02-07T05:27:39;-8.60;99.90
39095;DHT22;24840;47.508;19.376;2023-02-07T05:30:06;-8.50;99.90
39095;DHT22;24840;47.508;19.376;2023-02-07T05:32:32;-8.70;99.90
39095;DHT22;24840;47.508;19.376;2023-02-07T05:35:16;-8.60;99.90
39095;DHT22;24840;47.508;19.376;2023-02-07T05:37:42;-8.60;99.90
39095;DHT22;24840;47.508;19.376;2023-02-07T05:40:08;-8.50;99.90
39095;DHT22;24840;47.508;19.376;2023-02-07T05:42:35;-8.50;99.90
39095;DHT22;24840;47.508;19.376;2023-02-07T05:45:01;-8.50;99.90
39095;DHT22;24840;47.508;19.376;2023-02-07T05:47:27;-8.60;99.90
39095;DHT22;24840;47.508;19.376;2023-02-07T05:49:52;-8.70;99.90
39095;DHT22;24840;47.508;19.376;2023-02-07T05:52:18;-8.80;99.90
39095;DHT22;24840;47.508;19.376;2023-02-07T05:54:44;-8.80;99.90
39095;DHT22;24840;47.508;19.376;2023-02-07T05:57:10;-8.70;99.90
39095;DHT22;24840;47.508;19.376;2023-02-07T05:59:36;-8.70;99.90
39095;DHT22;24840;47.508;19.376;2023-02-07T06:02:01;-8.60;99.90
39095;DHT22;24840;47.508;19.376;2023-02-07T06:04:27;-8.70;99.90
39095;DHT22;24840;47.508;19.376;2023-02-07T06:06:53;-8.80;99.90
39095;DHT22;24840;47.508;19.376;2023-02-07T06:09:18;-8.70;99.90
39095;DHT22;24840;47.508;19.376;2023-02-07T06:11:44;-8.60;99.90
39095;DHT22;24840;47.508;19.376;2023-02-07T06:14:10;-8.60;99.90
39095;DHT22;24840;47.508;19.376;2023-02-07T06:16:36;-8.70;99.90
39095;DHT22;24840;47.508;19.376;2023-02-07T06:19:01;-8.70;99.90
39095;DHT22;24840;47.508;19.376;2023-02-07T06:21:27;-8.70;99.90
39095;DHT22;24840;47.508;19.376;2023-02-07T06:23:53;-8.90;99.90
39095;DHT22;24840;47.508;19.376;2023-02-07T06:26:19;-8.70;99.90
39095;DHT22;24840;47.508;19.376;2023-02-07T06:28:45;-8.60;99.90
39095;DHT22;24840;47.508;19.376;2023-02-07T06:31:10;-8.70;99.90
39095;DHT22;24840;47.508;19.376;2023-02-07T06:33:36;-8.80;99.90
39095;DHT22;24840;47.508;19.376;2023-02-07T06:36:02;-9.00;99.90
39095;DHT22;24840;47.508;19.376;2023-02-07T06:38:28;-9.00;99.90
39095;DHT22;24840;47.508;19.376;2023-02-07T06:40:54;-8.80;99.90
39095;DHT22;24840;47.508;19.376;2023-02-07T06:43:19;-8.70;99.90
39095;DHT22;24840;47.508;19.376;2023-02-07T06:45:45;-8.60;99.90
39095;DHT22;24840;47.508;19.376;2023-02-07T06:48:11;-8.50;99.90
39095;DHT22;24840;47.508;19.376;2023-02-07T06:50:37;-8.50;99.90
39095;DHT22;24840;47.508;19.376;2023-02-07T06:53:03;-8.50;99.90
39095;DHT22;24840;47.508;19.376;2023-02-07T06:55:29;-8.60;99.90
39095;DHT22;24840;47.508;19.376;2023-02-07T06:57:55;-8.50;99.90
39095;DHT22;24840;47.508;19.376;2023-02-07T07:00:22;-8.50;99.90
39095;DHT22;24840;47.508;19.376;2023-02-07T07:02:48;-8.70;99.90
39095;DHT22;24840;47.508;19.376;2023-02-07T07:05:14;-8.50;99.90
39095;DHT22;24840;47.508;19.376;2023-02-07T07:07:40;-8.40;99.90
39095;DHT22;24840;47.508;19.376;2023-02-07T07:10:05;-8.30;99.90
39095;DHT22;24840;47.508;19.376;2023-02-07T07:12:32;-8.40;99.90
39095;DHT22;24840;47.508;19.376;2023-02-07T07:14:57;-8.40;99.90
39095;DHT22;24840;47.508;19.376;2023-02-07T07:17:23;-8.40;99.90
39095;DHT22;24840;47.508;19.376;2023-02-07T07:19:49;-8.20;99.90
39095;DHT22;24840;47.508;19.376;2023-02-07T07:22:15;-8.20;99.90
39095;DHT22;24840;47.508;19.376;2023-02-07T07:24:41;-8.10;99.90
39095;DHT22;24840;47.508;19.376;2023-02-07T07:27:06;-8.00;99.90
39095;DHT22;24840;47.508;19.376;2023-02-07T07:29:32;-7.90;99.90
39095;DHT22;24840;47.508;19.376;2023-02-07T07:31:58;-7.70;99.90
39095;DHT22;24840;47.508;19.376;2023-02-07T07:34:24;-7.50;99.90
39095;DHT22;24840;47.508;19.376;2023-02-07T07:36:49;-6.90;99.90
39095;DHT22;24840;47.508;19.376;2023-02-07T07:39:16;-6.40;99.90
39095;DHT22;24840;47.508;19.376;2023-02-07T07:41:42;-6.00;99.90
39095;DHT22;24840;47.508;19.376;2023-02-07T07:44:08;-5.80;99.90
39095;DHT22;24840;47.508;19.376;2023-02-07T07:46:33;-5.60;99.90
39095;DHT22;24840;47.508;19.376;2023-02-07T07:48:59;-5.20;99.90
39095;DHT22;24840;47.508;19.376;2023-02-07T07:51:25;-5.00;99.90
39095;DHT22;24840;47.508;19.376;2023-02-07T07:53:51;-4.70;99.90
39095;DHT22;24840;47.508;19.376;2023-02-07T07:56:16;-4.20;99.90
39095;DHT22;24840;47.508;19.376;2023-02-07T07:58:42;-3.70;99.90
39095;DHT22;24840;47.508;19.376;2023-02-07T08:01:13;-3.60;99.90
39095;DHT22;24840;47.508;19.376;2023-02-07T08:03:38;-3.20;99.90
39095;DHT22;24840;47.508;19.376;2023-02-07T08:06:04;-3.10;99.90
39095;DHT22;24840;47.508;19.376;2023-02-07T08:08:30;-2.90;99.90
39095;DHT22;24840;47.508;19.376;2023-02-07T08:11:01;-2.90;99.90
39095;DHT22;24840;47.508;19.376;2023-02-07T08:13:26;-3.10;99.90
39095;DHT22;24840;47.508;19.376;2023-02-07T08:15:52;-3.20;99.90
39095;DHT22;24840;47.508;19.376;2023-02-07T08:18:18;-3.20;99.90
39095;DHT22;24840;47.508;19.376;2023-02-07T08:20:44;-3.20;99.90
39095;DHT22;24840;47.508;19.376;2023-02-07T08:23:09;-3.30;99.90
39095;DHT22;24840;47.508;19.376;2023-02-07T08:25:36;-3.30;99.90
39095;DHT22;24840;47.508;19.376;2023-02-07T08:28:02;-3.30;99.90
39095;DHT22;24840;47.508;19.376;2023-02-07T08:30:28;-3.40;99.90
39095;DHT22;24840;47.508;19.376;2023-02-07T08:32:54;-3.10;99.90
39095;DHT22;24840;47.508;19.376;2023-02-07T08:35:20;-2.80;99.90
39095;DHT22;24840;47.508;19.376;2023-02-07T08:37:46;-2.70;99.90
39095;DHT22;24840;47.508;19.376;2023-02-07T08:40:12;-2.30;99.90
39095;DHT22;24840;47.508;19.376;2023-02-07T08:42:38;-1.90;99.90
39095;DHT22;24840;47.508;19.376;2023-02-07T08:45:04;-1.00;99.90
39095;DHT22;24840;47.508;19.376;2023-02-07T08:47:31;-0.50;99.90
39095;DHT22;24840;47.508;19.376;2023-02-07T08:49:56;-0.30;99.90
39095;DHT22;24840;47.508;19.376;2023-02-07T08:52:23;0.30;99.90
39095;DHT22;24840;47.508;19.376;2023-02-07T08:54:49;0.60;99.90
39095;DHT22;24840;47.508;19.376;2023-02-07T08:57:15;0.60;99.90
39095;DHT22;24840;47.508;19.376;2023-02-07T08:59:41;1.20;99.90
39095;DHT22;24840;47.508;19.376;2023-02-07T09:02:08;1.50;99.90
39095;DHT22;24840;47.508;19.376;2023-02-07T09:04:34;1.80;99.90
39095;DHT22;24840;47.508;19.376;2023-02-07T09:07:00;2.40;99.90
39095;DHT22;24840;47.508;19.376;2023-02-07T09:09:26;1.40;95.70
39095;DHT22;24840;47.508;19.376;2023-02-07T09:11:52;1.90;98.00
39095;DHT22;24840;47.508;19.376;2023-02-07T09:14:18;2.00;96.40
39095;DHT22;24840;47.508;19.376;2023-02-07T09:16:44;2.70;97.20
39095;DHT22;24840;47.508;19.376;2023-02-07T09:19:09;3.40;96.60
39095;DHT22;24840;47.508;19.376;2023-02-07T09:21:35;3.20;93.60
39095;DHT22;24840;47.508;19.376;2023-02-07T09:24:02;3.60;93.30
39095;DHT22;24840;47.508;19.376;2023-02-07T09:26:28;3.90;91.80
39095;DHT22;24840;47.508;19.376;2023-02-07T09:28:56;4.10;91.00
39095;DHT22;24840;47.508;19.376;2023-02-07T09:31:22;3.80;79.30
39095;DHT22;24840;47.508;19.376;2023-02-07T09:33:48;2.90;83.10
39095;DHT22;24840;47.508;19.376;2023-02-07T09:36:19;3.30;89.80
39095;DHT22;24840;47.508;19.376;2023-02-07T09:38:47;3.00;86.90
39095;DHT22;24840;47.508;19.376;2023-02-07T09:47:22;3.50;89.30
39095;DHT22;24840;47.508;19.376;2023-02-07T09:55:35;5.40;78.50
39095;DHT22;24840;47.508;19.376;2023-02-07T10:01:25;4.40;74.70
39095;DHT22;24840;47.508;19.376;2023-02-07T10:06:29;6.00;75.80
39095;DHT22;24840;47.508;19.376;2023-02-07T10:08:58;5.90;69.20
39095;DHT22;24840;47.508;19.376;2023-02-07T10:25:33;6.80;66.10
39095;DHT22;24840;47.508;19.376;2023-02-07T10:31:11;6.80;65.90
39095;DHT22;24840;47.508;19.376;2023-02-07T10:33:40;5.70;62.20
39095;DHT22;24840;47.508;19.376;2023-02-07T10:36:13;5.90;65.00
39095;DHT22;24840;47.508;19.376;2023-02-07T10:38:51;5.70;65.20
39095;DHT22;24840;47.508;19.376;2023-02-07T10:41:20;6.20;66.80
39095;DHT22;24840;47.508;19.376;2023-02-07T10:43:47;6.50;62.90
39095;DHT22;24840;47.508;19.376;2023-02-07T10:46:18;6.60;65.30
39095;DHT22;24840;47.508;19.376;2023-02-07T10:48:45;6.00;62.80
39095;DHT22;24840;47.508;19.376;2023-02-07T10:51:28;6.50;67.30
39095;DHT22;24840;47.508;19.376;2023-02-07T10:54:13;6.80;68.30
39095;DHT22;24840;47.508;19.376;2023-02-07T10:56:46;6.70;62.90
39095;DHT22;24840;47.508;19.376;2023-02-07T11:01:56;6.70;61.60
39095;DHT22;24840;47.508;19.376;2023-02-07T11:04:32;7.80;63.80
39095;DHT22;24840;47.508;19.376;2023-02-07T11:07:00;7.40;63.20
39095;DHT22;24840;47.508;19.376;2023-02-07T11:09:26;7.20;63.00
39095;DHT22;24840;47.508;19.376;2023-02-07T11:11:53;6.30;63.20
39095;DHT22;24840;47.508;19.376;2023-02-07T11:14:24;7.00;63.00
39095;DHT22;24840;47.508;19.376;2023-02-07T11:16:59;5.90;62.80
39095;DHT22;24840;47.508;19.376;2023-02-07T11:19:27;6.50;63.80
39095;DHT22;24840;47.508;19.376;2023-02-07T11:22:12;7.00;62.80
39095;DHT22;24840;47.508;19.376;2023-02-07T11:24:41;6.90;63.60
39095;DHT22;24840;47.508;19.376;2023-02-07T11:27:17;7.60;61.20
39095;DHT22;24840;47.508;19.376;2023-02-07T11:29:58;7.70;63.50
39095;DHT22;24840;47.508;19.376;2023-02-07T11:32:27;6.20;61.90
39095;DHT22;24840;47.508;19.376;2023-02-07T11:37:27;6.30;69.00
39095;DHT22;24840;47.508;19.376;2023-02-07T11:42:49;5.70;63.00
39095;DHT22;24840;47.508;19.376;2023-02-07T11:45:21;5.20;65.80
39095;DHT22;24840;47.508;19.376;2023-02-07T11:47:50;6.30;63.00
39095;DHT22;24840;47.508;19.376;2023-02-07T11:50:21;6.80;62.70
39095;DHT22;24840;47.508;19.376;2023-02-07T11:52:54;7.70;61.30
39095;DHT22;24840;47.508;19.376;2023-02-07T11:55:21;7.60;65.30
39095;DHT22;24840;47.508;19.376;2023-02-07T11:57:48;8.10;63.20
39095;DHT22;24840;47.508;19.376;2023-02-07T12:00:24;7.30;59.70
39095;DHT22;24840;47.508;19.376;2023-02-07T12:03:24;6.30;62.20
39095;DHT22;24840;47.508;19.376;2023-02-07T12:05:57;6.10;65.20
39095;DHT22;24840;47.508;19.376;2023-02-07T12:08:29;6.40;60.70
39095;DHT22;24840;47.508;19.376;2023-02-07T12:11:01;6.20;62.50
39095;DHT22;24840;47.508;19.376;2023-02-07T12:13:35;6.90;65.90
39095;DHT22;24840;47.508;19.376;2023-02-07T12:16:33;7.90;63.10
39095;DHT22;24840;47.508;19.376;2023-02-07T12:19:11;7.90;62.60
39095;DHT22;24840;47.508;19.376;2023-02-07T12:24:47;7.60;60.40
39095;DHT22;24840;47.508;19.376;2023-02-07T12:27:18;7.40;60.70
39095;DHT22;24840;47.508;19.376;2023-02-07T12:38:23;7.50;62.40
39095;DHT22;24840;47.508;19.376;2023-02-07T12:40:51;6.90;58.10
39095;DHT22;24840;47.508;19.376;2023-02-07T12:43:29;6.90;63.20
39095;DHT22;24840;47.508;19.376;2023-02-07T12:51:15;7.20;59.00
39095;DHT22;24840;47.508;19.376;2023-02-07T13:00:04;8.40;58.50
39095;DHT22;24840;47.508;19.376;2023-02-07T13:05:17;6.80;58.60
39095;DHT22;24840;47.508;19.376;2023-02-07T13:08:00;6.30;60.60
39095;DHT22;24840;47.508;19.376;2023-02-07T13:13:31;7.10;61.60
39095;DHT22;24840;47.508;19.376;2023-02-07T13:24:04;7.70;61.30
39095;DHT22;24840;47.508;19.376;2023-02-07T13:26:33;7.60;62.20
39095;DHT22;24840;47.508;19.376;2023-02-07T13:29:03;7.00;58.10
39095;DHT22;24840;47.508;19.376;2023-02-07T13:31:44;6.50;61.60
39095;DHT22;24840;47.508;19.376;2023-02-07T13:34:20;7.10;59.30
39095;DHT22;24840;47.508;19.376;2023-02-07T13:36:48;6.90;60.50
39095;DHT22;24840;47.508;19.376;2023-02-07T13:44:46;6.80;62.10
39095;DHT22;24840;47.508;19.376;2023-02-07T13:55:46;7.50;60.60
39095;DHT22;24840;47.508;19.376;2023-02-07T14:01:29;7.60;59.00
39095;DHT22;24840;47.508;19.376;2023-02-07T14:04:11;7.20;60.60
39095;DHT22;24840;47.508;19.376;2023-02-07T14:06:39;6.80;58.40
39095;DHT22;24840;47.508;19.376;2023-02-07T14:12:31;6.10;62.60
39095;DHT22;24840;47.508;19.376;2023-02-07T14:17:56;6.80;62.90
39095;DHT22;24840;47.508;19.376;2023-02-07T14:23:18;6.10;61.10
39095;DHT22;24840;47.508;19.376;2023-02-07T14:25:45;5.50;61.40
39095;DHT22;24840;47.508;19.376;2023-02-07T14:28:18;5.70;62.30
39095;DHT22;24840;47.508;19.376;2023-02-07T14:33:20;5.80;63.70
39095;DHT22;24840;47.508;19.376;2023-02-07T14:38:43;5.40;62.60
39095;DHT22;24840;47.508;19.376;2023-02-07T14:41:28;5.10;63.70
39095;DHT22;24840;47.508;19.376;2023-02-07T14:43:56;5.10;64.70
39095;DHT22;24840;47.508;19.376;2023-02-07T14:49:19;4.70;66.00
39095;DHT22;24840;47.508;19.376;2023-02-07T14:51:49;4.20;66.30
39095;DHT22;24840;47.508;19.376;2023-02-07T14:57:38;4.50;66.70
39095;DHT22;24840;47.508;19.376;2023-02-07T15:00:29;4.10;65.50
39095;DHT22;24840;47.508;19.376;2023-02-07T15:02:58;4.10;67.20
39095;DHT22;24840;47.508;19.376;2023-02-07T15:05:33;4.00;69.80
39095;DHT22;24840;47.508;19.376;2023-02-07T15:10:51;3.70;68.90
39095;DHT22;24840;47.508;19.376;2023-02-07T15:15:55;3.50;70.20
39095;DHT22;24840;47.508;19.376;2023-02-07T15:18:24;3.30;71.70
39095;DHT22;24840;47.508;19.376;2023-02-07T15:20:55;3.20;72.70
39095;DHT22;24840;47.508;19.376;2023-02-07T15:23:27;3.30;73.50
39095;DHT22;24840;47.508;19.376;2023-02-07T15:25:54;3.20;72.30
39095;DHT22;24840;47.508;19.376;2023-02-07T15:28:21;3.10;75.10
39095;DHT22;24840;47.508;19.376;2023-02-07T15:31:13;3.00;75.00
39095;DHT22;24840;47.508;19.376;2023-02-07T15:33:53;2.80;75.20
39095;DHT22;24840;47.508;19.376;2023-02-07T15:36:39;2.60;77.40
39095;DHT22;24840;47.508;19.376;2023-02-07T15:39:16;2.40;78.80
39095;DHT22;24840;47.508;19.376;2023-02-07T15:41:47;2.00;80.40
39095;DHT22;24840;47.508;19.376;2023-02-07T15:47:29;2.10;82.40
39095;DHT22;24840;47.508;19.376;2023-02-07T15:50:20;1.70;83.40
39095;DHT22;24840;47.508;19.376;2023-02-07T15:52:50;1.80;83.80
39095;DHT22;24840;47.508;19.376;2023-02-07T15:55:44;1.90;84.30
39095;DHT22;24840;47.508;19.376;2023-02-07T15:58:21;1.60;84.20
39095;DHT22;24840;47.508;19.376;2023-02-07T16:00:49;1.50;85.10
39095;DHT22;24840;47.508;19.376;2023-02-07T16:03:22;1.10;86.40
39095;DHT22;24840;47.508;19.376;2023-02-07T16:06:20;1.00;86.60
39095;DHT22;24840;47.508;19.376;2023-02-07T16:08:55;1.00;87.30
39095;DHT22;24840;47.508;19.376;2023-02-07T16:14:22;0.70;85.30
39095;DHT22;24840;47.508;19.376;2023-02-07T16:16:55;0.90;86.20
39095;DHT22;24840;47.508;19.376;2023-02-07T16:19:31;0.40;88.00
39095;DHT22;24840;47.508;19.376;2023-02-07T16:22:13;0.20;89.60
39095;DHT22;24840;47.508;19.376;2023-02-07T16:24:43;0.20;90.20
39095;DHT22;24840;47.508;19.376;2023-02-07T16:27:18;-0.10;89.10
39095;DHT22;24840;47.508;19.376;2023-02-07T16:29:44;-0.20;90.60
39095;DHT22;24840;47.508;19.376;2023-02-07T16:32:11;-0.30;91.10
39095;DHT22;24840;47.508;19.376;2023-02-07T16:34:38;-0.40;91.40
39095;DHT22;24840;47.508;19.376;2023-02-07T16:37:04;-0.70;91.60
39095;DHT22;24840;47.508;19.376;2023-02-07T16:39:30;-0.80;92.50
39095;DHT22;24840;47.508;19.376;2023-02-07T16:42:00;-0.60;91.90
39095;DHT22;24840;47.508;19.376;2023-02-07T16:44:27;-0.70;92.80
39095;DHT22;24840;47.508;19.376;2023-02-07T16:46:56;-0.80;92.70
39095;DHT22;24840;47.508;19.376;2023-02-07T16:49:53;-1.00;92.90
39095;DHT22;24840;47.508;19.376;2023-02-07T16:52:19;-0.90;93.00
39095;DHT22;24840;47.508;19.376;2023-02-07T16:54:45;-1.00;93.10
39095;DHT22;24840;47.508;19.376;2023-02-07T16:57:12;-1.30;93.70
39095;DHT22;24840;47.508;19.376;2023-02-07T16:59:39;-1.30;93.70
39095;DHT22;24840;47.508;19.376;2023-02-07T17:02:15;-1.40;93.90
39095;DHT22;24840;47.508;19.376;2023-02-07T17:04:43;-1.70;94.00
39095;DHT22;24840;47.508;19.376;2023-02-07T17:07:11;-1.80;94.90
39095;DHT22;24840;47.508;19.376;2023-02-07T17:09:36;-1.70;94.70
39095;DHT22;24840;47.508;19.376;2023-02-07T17:12:02;-2.00;94.80
39095;DHT22;24840;47.508;19.376;2023-02-07T17:14:28;-2.10;95.40
39095;DHT22;24840;47.508;19.376;2023-02-07T17:16:54;-2.10;95.20
39095;DHT22;24840;47.508;19.376;2023-02-07T17:19:21;-2.10;95.60
39095;DHT22;24840;47.508;19.376;2023-02-07T17:21:49;-2.20;96.10
39095;DHT22;24840;47.508;19.376;2023-02-07T17:24:15;-2.00;96.20
39095;DHT22;24840;47.508;19.376;2023-02-07T17:26:44;-2.20;96.20
39095;DHT22;24840;47.508;19.376;2023-02-07T17:29:12;-2.20;96.60
39095;DHT22;24840;47.508;19.376;2023-02-07T17:31:39;-2.20;96.30
39095;DHT22;24840;47.508;19.376;2023-02-07T17:34:04;-2.50;96.50
39095;DHT22;24840;47.508;19.376;2023-02-07T17:36:32;-2.60;96.70
39095;DHT22;24840;47.508;19.376;2023-02-07T17:38:59;-2.80;97.10
39095;DHT22;24840;47.508;19.376;2023-02-07T17:43:54;-2.70;97.80
39095;DHT22;24840;47.508;19.376;2023-02-07T17:46:35;-2.90;97.70
39095;DHT22;24840;47.508;19.376;2023-02-07T17:49:01;-2.90;98.00
39095;DHT22;24840;47.508;19.376;2023-02-07T17:51:27;-2.90;98.00
39095;DHT22;24840;47.508;19.376;2023-02-07T17:53:54;-2.90;98.50
39095;DHT22;24840;47.508;19.376;2023-02-07T17:56:26;-2.70;98.10
39095;DHT22;24840;47.508;19.376;2023-02-07T17:58:54;-2.90;98.00
39095;DHT22;24840;47.508;19.376;2023-02-07T18:01:20;-3.10;98.50
39095;DHT22;24840;47.508;19.376;2023-02-07T18:03:47;-3.10;98.80
39095;DHT22;24840;47.508;19.376;2023-02-07T18:06:15;-3.20;98.50
39095;DHT22;24840;47.508;19.376;2023-02-07T18:08:42;-3.30;98.80
39095;DHT22;24840;47.508;19.376;2023-02-07T18:11:08;-3.40;98.60
39095;DHT22;24840;47.508;19.376;2023-02-07T18:13:37;-3.50;99.10
39095;DHT22;24840;47.508;19.376;2023-02-07T18:18:54;-3.20;98.90
39095;DHT22;24840;47.508;19.376;2023-02-07T18:21:20;-3.10;98.50
39095;DHT22;24840;47.508;19.376;2023-02-07T18:23:46;-3.10;99.00
39095;DHT22;24840;47.508;19.376;2023-02-07T18:26:13;-3.40;99.00
39095;DHT22;24840;47.508;19.376;2023-02-07T18:28:41;-3.60;99.30